Meteorología y climatología de Navarra
Datos de la estación - Meteo Navarra

Estación de Erremendia (Salazar) GN

Altitud 1047 m.


Datos desde el 07/12/2018 hasta el 08/12/2018 en horario solar
Los datos son PROVISIONALES

Anterior Página 1 de 1 Siguiente Descargar: Formato para Excel 2000 o superior   Formato csv   Formato para OpenOffice Calc
Fecha Temperatura Humedad relativa Radiación global Insolación Precipitación Velocidad viento 10 m Velocidad viento 10 m Dirección viento 10 m
ºC % W/m² s l/m² m/s km/h º
07/12/2018 0:00 4.3 87 0.0 0 0.0 1.1 4.0 259
07/12/2018 0:10 3.8 89 0.0 0 0.0 1.2 4.2 271
07/12/2018 0:20 3.7 89 0.0 0 0.0 0.5 1.8 280
07/12/2018 0:30 3.8 89 0.0 0 0.0 0.9 3.3 263
07/12/2018 0:40 3.4 89 0.0 0 0.0 1.1 3.9 220
07/12/2018 0:50 2.8 90 0.0 0 0.0 1.0 3.6 234
07/12/2018 1:00 1.8 92 0.0 0 0.0 0.8 2.9 215
07/12/2018 1:10 1.3 93 0.0 0 0.0 0.9 3.4 207
07/12/2018 1:20 1.0 94 0.0 0 0.0 0.6 2.3 221
07/12/2018 1:30 0.3 94 0.0 0 0.0 0.2 0.5 272
07/12/2018 1:40 -0.4 94 0.0 0 0.0 0.3 1.2 230
07/12/2018 1:50 -1.1 94 0.0 0 0.0 0.0 0.1 233
07/12/2018 2:00 -1.4 95 0.0 0 0.0 0.1 0.3 233
07/12/2018 2:10 -1.6 96 0.0 0 0.0 0.3 1.2 1
07/12/2018 2:20 -1.5 96 0.0 0 0.0 0.6 2.0 44
07/12/2018 2:30 -1.1 97 0.0 0 0.0 0.5 1.9 65
07/12/2018 2:40 -1.9 96 0.0 0 0.0 0.1 0.5 88
07/12/2018 2:50 -2.3 96 0.0 0 0.0 0.1 0.2 67
07/12/2018 3:00 -2.2 97 0.0 0 0.0 0.5 1.7 6
07/12/2018 3:10 -2.2 97 0.0 0 0.0 0.3 1.2 124
07/12/2018 3:20 -2.6 97 0.0 0 0.0 0.9 3.3 81
07/12/2018 3:30 -2.6 97 0.0 0 0.0 0.4 1.3 67
07/12/2018 3:40 -2.8 97 0.0 0 0.0 0.5 1.9 99
07/12/2018 3:50 -2.7 97 0.0 0 0.0 0.8 2.7 43
07/12/2018 4:00 -2.3 97 0.0 0 0.0 1.2 4.3 68
07/12/2018 4:10 -2.4 97 0.0 0 0.0 0.9 3.1 104
07/12/2018 4:20 -2.5 97 0.0 0 0.0 1.3 4.5 74
07/12/2018 4:30 -2.7 97 0.0 0 0.0 0.5 1.8 101
07/12/2018 4:40 -3.0 97 0.0 0 0.0 0.3 1.0 88
07/12/2018 4:50 -3.1 97 0.0 0 0.0 0.8 2.7 76
07/12/2018 5:00 -2.6 98 0.0 0 0.0 0.9 3.1 80
07/12/2018 5:10 -3.3 97 0.0 0 0.0 0.3 1.1 110
07/12/2018 5:20 -3.7 97 0.0 0 0.0 0.2 0.8 70
07/12/2018 5:30 -3.8 97 0.0 0 0.0 0.8 2.9 73
07/12/2018 5:40 -3.4 97 0.0 0 0.0 1.7 6.0 68
07/12/2018 5:50 -3.3 97 0.0 0 0.0 1.0 3.7 90
07/12/2018 6:00 -3.9 96 0.0 0 0.0 0.3 1.0 104
07/12/2018 6:10 -4.1 96 0.0 0 0.0 0.1 0.5 52
07/12/2018 6:20 -4.3 96 0.0 0 0.0 0.7 2.3 76
07/12/2018 6:30 -4.3 96 0.0 0 0.0 0.3 1.2 91
07/12/2018 6:40 -4.2 97 0.0 0 0.0 0.8 3.0 73
07/12/2018 6:50 -3.9 97 0.0 0 0.0 1.2 4.3 57
07/12/2018 7:00 -3.9 97 0.0 0 0.0 0.6 2.2 129
07/12/2018 7:10 -4.1 96 0.0 0 0.0 0.6 2.1 83
07/12/2018 7:20 -4.5 96 0.0 0 0.0 0.7 2.6 76
07/12/2018 7:30 -4.3 96 0.0 0 0.0 1.2 4.2 86
07/12/2018 7:40 -3.8 97 0.0 0 0.0 1.0 3.7 60
07/12/2018 7:50 -4.3 96 0.0 0 0.0 0.6 2.1 124
07/12/2018 8:00 -4.3 96 9.0 0 0.0 0.3 1.1 107
07/12/2018 8:10 -4.2 96 87.6 380 0.0 0.8 3.0 70
07/12/2018 8:20 -2.7 97 172.6 600 0.0 1.4 5.0 75
07/12/2018 8:30 -1.7 96 193.5 600 0.0 0.7 2.6 137
07/12/2018 8:40 -0.4 95 214.2 600 0.0 0.5 1.7 112
07/12/2018 8:50 0.3 93 251.0 600 0.0 0.5 1.9 108
07/12/2018 9:00 1.0 92 314.3 600 0.0 0.5 1.8 108
07/12/2018 9:10 1.9 92 264.9 600 0.0 0.1 0.3 131
07/12/2018 9:20 2.6 92 248.2 600 0.0 0.3 0.9 149
07/12/2018 9:30 3.3 91 265.0 600 0.0 0.3 1.1 194
07/12/2018 9:40 4.8 89 285.9 600 0.0 0.2 0.7 193
07/12/2018 9:50 6.0 86 305.9 600 0.0 0.4 1.3 188
07/12/2018 10:00 7.2 79 326.2 600 0.0 1.4 5.1 172
07/12/2018 10:10 8.4 72 345.0 600 0.0 1.4 5.1 198
07/12/2018 10:20 9.4 69 360.1 600 0.0 1.1 3.9 214
07/12/2018 10:30 10.1 65 374.4 600 0.0 1.0 3.6 188
07/12/2018 10:40 10.6 64 388.6 600 0.0 1.1 4.1 207
07/12/2018 10:50 10.8 63 401.3 600 0.0 1.2 4.4 274
07/12/2018 11:00 10.8 63 411.2 600 0.0 1.0 3.5 317
07/12/2018 11:10 11.1 62 417.8 600 0.0 1.6 5.9 325
07/12/2018 11:20 11.4 61 422.1 600 0.0 1.6 5.9 304
07/12/2018 11:30 11.4 60 425.2 600 0.0 1.7 6.2 310
07/12/2018 11:40 11.5 59 427.3 600 0.0 2.2 8.0 314
07/12/2018 11:50 11.4 59 430.1 600 0.0 1.9 6.8 304
07/12/2018 12:00 11.7 58 433.6 600 0.0 1.5 5.5 317
07/12/2018 12:10 11.8 57 389.2 600 0.0 1.7 6.0 316
07/12/2018 12:20 12.1 56 425.4 600 0.0 1.0 3.4 276
07/12/2018 12:30 12.7 53 418.7 600 0.0 1.7 6.3 271
07/12/2018 12:40 12.5 52 413.7 600 0.0 2.5 8.8 283
07/12/2018 12:50 12.4 52 408.4 600 0.0 2.2 8.0 294
07/12/2018 13:00 12.4 52 401.4 600 0.0 2.7 9.5 306
07/12/2018 13:10 12.2 54 398.7 600 0.0 1.9 7.0 312
07/12/2018 13:20 12.2 55 373.0 600 0.0 2.5 9.0 316
07/12/2018 13:30 12.0 54 346.0 600 0.0 2.7 9.6 311
07/12/2018 13:40 11.8 53 228.2 442 0.0 2.5 9.0 303
07/12/2018 13:50 11.6 53 179.6 170 0.0 2.4 8.6 303
07/12/2018 14:00 11.2 55 96.1 0 0.0 1.7 6.0 291
07/12/2018 14:10 11.0 57 88.0 0 0.0 1.9 6.8 288
07/12/2018 14:20 10.8 58 100.7 0 0.0 2.1 7.5 307
07/12/2018 14:30 10.8 59 136.2 0 0.0 1.4 5.1 299
07/12/2018 14:40 11.0 59 135.7 96 0.0 1.1 4.1 285
07/12/2018 14:50 11.0 60 195.6 332 0.0 1.8 6.4 319
07/12/2018 15:00 11.1 61 120.0 160 0.0 2.1 7.7 317
07/12/2018 15:10 10.7 63 55.9 0 0.0 2.1 7.6 320
07/12/2018 15:20 10.4 66 36.7 0 0.0 1.7 6.1 301
07/12/2018 15:30 9.9 72 30.9 0 0.0 2.9 10.4 308
07/12/2018 15:40 9.0 81 20.1 0 0.0 2.5 8.9 303
07/12/2018 15:50 8.4 87 13.7 0 0.0 2.8 10.2 305
07/12/2018 16:00 7.8 91 11.1 0 0.0 1.6 5.9 316
07/12/2018 16:10 7.7 93 0.0 0 0.1 0.6 2.3 285
07/12/2018 16:20 7.6 93 0.0 0 0.0 0.5 1.8 298
07/12/2018 16:30 7.5 94 0.0 0 0.0 0.9 3.3 253
07/12/2018 16:40 7.5 94 0.0 0 0.0 1.0 3.6 278
07/12/2018 16:50 7.6 95 0.0 0 0.0 1.4 5.0 282
07/12/2018 17:00 7.7 95 0.0 0 0.0 2.1 7.7 294
07/12/2018 17:10 7.8 94 0.0 0 0.0 1.1 4.0 274
07/12/2018 17:20 7.8 95 0.0 0 0.0 1.5 5.4 296
07/12/2018 17:30 7.8 95 0.0 0 0.1 2.0 7.0 303
07/12/2018 17:40 7.7 96 0.0 0 0.0 2.3 8.1 298
07/12/2018 17:50 7.6 96 0.0 0 0.0 2.2 7.9 301
07/12/2018 18:00 7.5 96 0.0 0 0.1 1.9 6.8 302
07/12/2018 18:10 7.5 96 0.0 0 0.1 2.1 7.5 297
07/12/2018 18:20 7.3 96 0.0 0 0.0 2.2 7.8 304
07/12/2018 18:30 7.2 96 0.0 0 0.0 2.0 7.1 299
07/12/2018 18:40 7.1 96 0.0 0 0.1 2.3 8.4 296
07/12/2018 18:50 7.1 96 0.0 0 0.0 1.5 5.4 298
07/12/2018 19:00 7.0 96 0.0 0 0.0 1.8 6.4 292
07/12/2018 19:10 7.0 96 0.0 0 0.0 1.9 6.9 296
07/12/2018 19:20 6.8 96 0.0 0 0.0 2.5 9.0 310
07/12/2018 19:30 6.7 96 0.0 0 0.1 2.3 8.4 289
07/12/2018 19:40 6.5 97 0.0 0 0.1 2.6 9.3 302
07/12/2018 19:50 6.5 96 0.0 0 0.0 2.8 10.0 307
07/12/2018 20:00 6.4 96 0.0 0 0.1 2.7 9.9 302
07/12/2018 20:10 6.1 96 0.0 0 0.1 2.8 10.1 300
07/12/2018 20:20 5.9 96 0.0 0 0.0 2.9 10.4 302
07/12/2018 20:30 5.8 96 0.0 0 0.1 3.4 12.2 306
07/12/2018 20:40 5.5 97 0.0 0 0.2 3.1 11.0 311
07/12/2018 20:50 5.4 97 0.0 0 0.1 3.3 12.0 306
07/12/2018 21:00 5.2 96 0.0 0 0.0 1.9 6.8 307
07/12/2018 21:10 5.0 96 0.0 0 0.1 2.1 7.5 313
07/12/2018 21:20 4.8 96 0.0 0 0.1 2.8 9.9 307
07/12/2018 21:30 4.6 95 0.0 0 0.0 2.3 8.4 316
07/12/2018 21:40 4.6 96 0.0 0 0.0 1.1 4.0 324
07/12/2018 21:50 4.5 95 0.0 0 0.0 1.3 4.7 329
07/12/2018 22:00 4.4 95 0.0 0 0.1 1.7 6.2 314
07/12/2018 22:10 4.3 95 0.0 0 0.0 1.9 6.9 307
07/12/2018 22:20 4.2 96 0.0 0 0.1 1.9 6.9 300
07/12/2018 22:30 4.1 96 0.0 0 0.0 2.0 7.2 309
07/12/2018 22:40 4.0 96 0.0 0 0.1 1.8 6.5 301
07/12/2018 22:50 4.0 97 0.0 0 0.1 1.8 6.6 305
07/12/2018 23:00 3.9 97 0.0 0 0.1 1.5 5.5 300
07/12/2018 23:10 3.9 97 0.0 0 0.0 1.8 6.5 297
07/12/2018 23:20 3.9 97 0.0 0 0.0 1.5 5.4 290
07/12/2018 23:30 4.0 97 0.0 0 0.0 2.2 7.9 294
07/12/2018 23:40 4.0 97 0.0 0 0.0 1.5 5.5 300
07/12/2018 23:50 4.1 96 0.0 0 0.0 1.5 5.3 293
Anterior Página 1 de 1 Siguiente

NOTA: Tipo de datos según el color:
   - Valores diarios o 10 minutos correctos
   - Valores diarios calculados a partir de un número de datos 10 minutos menor que 144 y mayor que 120, o de un número de datos semihorarios menor que 48 y mayor que 40 (caso de las estaciones de Riegos de Navarra y del MARM)
   - Valores diez minutos estimados


Contacto        Enlaces        Aviso legal